createdAt,value
2018-12-19T00:01:41.643Z,-2.04
2018-12-19T00:04:17.745Z,-2.08
2018-12-19T00:06:53.844Z,-2.03
2018-12-19T00:09:29.867Z,-2.03
2018-12-19T00:12:06.272Z,-2.13
2018-12-19T00:14:42.716Z,-2.36
2018-12-19T00:17:18.734Z,-2.23
2018-12-19T00:19:55.024Z,-2.19
2018-12-19T00:22:31.139Z,-2.11
2018-12-19T00:25:08.261Z,-1.96
2018-12-19T00:27:44.489Z,-1.89
2018-12-19T00:30:20.490Z,-1.97
2018-12-19T00:32:56.631Z,-1.93
2018-12-19T00:35:32.937Z,-1.88
2018-12-19T00:38:09.044Z,-1.90
2018-12-19T00:40:45.028Z,-1.81
2018-12-19T00:43:21.151Z,-1.79
2018-12-19T00:45:57.171Z,-1.73
2018-12-19T00:48:33.308Z,-1.95
2018-12-19T00:51:09.615Z,-2.06
2018-12-19T00:53:45.862Z,-1.94
2018-12-19T00:56:22.016Z,-1.82
2018-12-19T00:58:58.123Z,-1.82
2018-12-19T01:01:34.131Z,-1.78
2018-12-19T01:04:10.313Z,-1.92
2018-12-19T01:06:46.262Z,-1.95
2018-12-19T01:09:22.345Z,-2.13
2018-12-19T01:11:58.168Z,-2.08
2018-12-19T01:14:34.178Z,-2.16
2018-12-19T01:17:10.187Z,-2.14
2018-12-19T01:19:46.598Z,-2.12
2018-12-19T01:22:22.623Z,-1.98
2018-12-19T01:24:59.032Z,-2.02
2018-12-19T01:27:35.047Z,-1.98
2018-12-19T01:30:11.131Z,-1.94
2018-12-19T01:32:47.169Z,-2.04
2018-12-19T01:35:23.315Z,-2.10
2018-12-19T01:37:59.304Z,-2.07
2018-12-19T01:40:35.417Z,-2.07
2018-12-19T01:43:11.385Z,-2.05
2018-12-19T01:45:47.517Z,-2.07
2018-12-19T01:48:24.397Z,-2.27
2018-12-19T01:51:00.612Z,-2.25
2018-12-19T01:53:36.570Z,-2.17
2018-12-19T01:56:13.254Z,-2.32
2018-12-19T01:58:49.316Z,-2.30
2018-12-19T02:01:25.089Z,-2.28
2018-12-19T02:04:01.147Z,-2.21
2018-12-19T02:06:37.798Z,-2.16
2018-12-19T02:09:15.235Z,-2.07
2018-12-19T02:11:51.170Z,-2.12
2018-12-19T02:14:27.215Z,-2.12
2018-12-19T02:17:03.308Z,-2.20
2018-12-19T02:19:39.355Z,-2.27
2018-12-19T02:22:15.478Z,-2.25
2018-12-19T02:24:52.378Z,-2.21
2018-12-19T02:27:28.467Z,-2.23
2018-12-19T02:30:06.157Z,-2.14
2018-12-19T02:32:42.106Z,-2.29
2018-12-19T02:35:18.155Z,-2.17
2018-12-19T02:37:54.048Z,-2.14
2018-12-19T02:40:30.277Z,-2.13
2018-12-19T02:43:06.421Z,-2.44
2018-12-19T02:45:42.382Z,-2.68
2018-12-19T02:48:18.480Z,-2.32
2018-12-19T02:50:54.538Z,-2.32
2018-12-19T02:53:30.643Z,-2.21
2018-12-19T02:56:06.610Z,-2.26
2018-12-19T02:58:42.580Z,-2.25
2018-12-19T03:01:18.427Z,-2.14
2018-12-19T03:03:54.551Z,-2.25
2018-12-19T03:06:30.577Z,-2.30
2018-12-19T03:09:08.513Z,-2.16
2018-12-19T03:11:44.844Z,-2.18
2018-12-19T03:14:20.942Z,-2.27
2018-12-19T03:16:56.959Z,-2.37
2018-12-19T03:19:33.047Z,-2.50
2018-12-19T03:22:08.894Z,-2.48
2018-12-19T03:24:44.879Z,-2.29
2018-12-19T03:27:21.205Z,-2.38
2018-12-19T03:29:57.307Z,-2.28
2018-12-19T03:32:33.318Z,-2.28
2018-12-19T03:35:09.434Z,-2.37
2018-12-19T03:37:45.429Z,-2.26
2018-12-19T03:40:21.630Z,-2.42
2018-12-19T03:42:57.614Z,-2.45
2018-12-19T03:45:33.689Z,-2.48
2018-12-19T03:51:18.569Z,-2.43
2018-12-19T03:53:55.044Z,-2.64
2018-12-19T03:56:31.276Z,-2.49
2018-12-19T03:59:07.508Z,-2.39
2018-12-19T04:01:47.023Z,-2.45
2018-12-19T04:04:23.772Z,-2.54
2018-12-19T04:07:00.569Z,-2.56
2018-12-19T04:09:37.837Z,-2.64
2018-12-19T04:12:14.378Z,-2.72
2018-12-19T04:14:50.910Z,-2.83
2018-12-19T04:17:27.052Z,-2.57
2018-12-19T04:20:03.224Z,-2.72
2018-12-19T04:22:39.322Z,-2.47
2018-12-19T04:25:15.553Z,-2.41
2018-12-19T04:27:51.674Z,-2.36
2018-12-19T04:30:27.769Z,-2.26
2018-12-19T04:33:03.975Z,-2.25
2018-12-19T04:35:40.544Z,-2.25
2018-12-19T04:38:17.172Z,-2.25
2018-12-19T04:41:04.956Z,-2.49
2018-12-19T04:47:15.800Z,-2.34
2018-12-19T04:50:00.893Z,-2.27
2018-12-19T04:53:05.703Z,-2.40
2018-12-19T04:58:45.214Z,-2.66
2018-12-19T05:01:21.519Z,-3.05
2018-12-19T05:03:58.302Z,-2.98
2018-12-19T05:06:34.390Z,-2.80
2018-12-19T05:09:10.561Z,-2.66
2018-12-19T05:11:47.077Z,-2.60
2018-12-19T05:14:24.130Z,-2.63
2018-12-19T05:17:00.773Z,-2.50
2018-12-19T05:19:36.996Z,-2.59
2018-12-19T05:22:13.358Z,-2.72
2018-12-19T05:24:49.596Z,-2.57
2018-12-19T05:27:25.736Z,-2.61
2018-12-19T05:30:01.971Z,-3.08
2018-12-19T05:32:38.714Z,-3.09
2018-12-19T05:35:14.841Z,-3.19
2018-12-19T05:37:51.285Z,-3.23
2018-12-19T05:40:28.905Z,-3.28
2018-12-19T05:43:05.136Z,-3.23
2018-12-19T05:45:41.372Z,-3.29
2018-12-19T05:48:19.169Z,-2.99
2018-12-19T05:50:55.518Z,-2.84
2018-12-19T05:53:32.269Z,-2.74
2018-12-19T05:56:08.445Z,-2.74
2018-12-19T05:58:44.523Z,-2.86
2018-12-19T06:01:20.842Z,-3.05
2018-12-19T06:03:56.995Z,-2.92
2018-12-19T06:06:33.219Z,-2.99
2018-12-19T06:09:09.382Z,-2.83
2018-12-19T06:11:45.819Z,-3.26
2018-12-19T06:14:23.016Z,-3.45
2018-12-19T06:16:59.334Z,-3.25
2018-12-19T06:19:35.426Z,-3.45
2018-12-19T06:22:11.635Z,-3.36
2018-12-19T06:24:47.765Z,-3.33
2018-12-19T06:27:26.527Z,-3.64
2018-12-19T06:30:02.746Z,-3.28
2018-12-19T06:32:39.319Z,-3.22
2018-12-19T06:35:15.414Z,-2.95
2018-12-19T06:37:51.466Z,-2.82
2018-12-19T06:40:32.661Z,-3.07
2018-12-19T06:43:05.838Z,-3.15
2018-12-19T06:45:41.841Z,-3.27
2018-12-19T06:48:18.019Z,-3.14
2018-12-19T06:50:54.158Z,-3.02
2018-12-19T06:53:30.234Z,-2.78
2018-12-19T06:56:06.469Z,-2.62
2018-12-19T06:58:42.743Z,-2.37
2018-12-19T07:01:19.308Z,-2.13
2018-12-19T07:03:55.472Z,-1.83
2018-12-19T07:06:31.766Z,-1.65
2018-12-19T07:09:09.444Z,-1.57
2018-12-19T07:11:45.527Z,-1.25
2018-12-19T07:14:22.709Z,-1.44
2018-12-19T07:16:58.842Z,-1.21
2018-12-19T07:19:34.893Z,-1.34
2018-12-19T07:22:11.111Z,-1.25
2018-12-19T07:24:47.573Z,-1.51
2018-12-19T07:27:23.920Z,-1.14
2018-12-19T07:30:00.416Z,-0.87
2018-12-19T07:32:36.317Z,-0.67
2018-12-19T07:35:12.540Z,-0.81
2018-12-19T07:37:48.918Z,-0.82
2018-12-19T07:40:25.220Z,-0.87
2018-12-19T07:43:01.346Z,-0.64
2018-12-19T07:45:37.522Z,-0.65
2018-12-19T07:48:14.291Z,-0.43
2018-12-19T07:50:50.545Z,-0.82
2018-12-19T07:53:27.245Z,-1.12
2018-12-19T07:56:04.358Z,-1.09
2018-12-19T07:58:40.639Z,-0.86
2018-12-19T08:01:17.479Z,-0.35
2018-12-19T08:03:53.790Z,0.22
2018-12-19T08:06:29.904Z,0.35
2018-12-19T08:09:08.564Z,0.36
2018-12-19T08:11:44.764Z,0.52
2018-12-19T08:14:20.919Z,0.33
2018-12-19T08:16:58.363Z,0.43
2018-12-19T08:19:35.514Z,0.60
2018-12-19T08:22:11.590Z,0.84
2018-12-19T08:24:47.647Z,0.27
2018-12-19T08:27:23.870Z,0.19
2018-12-19T08:29:59.996Z,0.00
2018-12-19T08:32:36.152Z,-0.38
2018-12-19T08:35:12.380Z,-0.77
2018-12-19T08:37:48.518Z,-0.95
2018-12-19T08:40:24.681Z,-0.63
2018-12-19T08:43:00.822Z,-0.50
2018-12-19T08:45:37.430Z,-0.52
2018-12-19T08:48:14.682Z,-0.35
2018-12-19T08:50:51.591Z,-0.31
2018-12-19T08:53:27.669Z,-0.92
2018-12-19T08:56:03.764Z,-0.87
2018-12-19T08:58:40.202Z,-0.93
2018-12-19T09:01:16.402Z,-0.98
2018-12-19T09:03:52.510Z,-0.81
2018-12-19T09:06:28.520Z,-0.62
2018-12-19T09:09:08.147Z,-0.52
2018-12-19T09:11:44.339Z,-0.50
2018-12-19T09:14:20.410Z,0.13
2018-12-19T09:16:56.439Z,0.13
2018-12-19T09:19:33.073Z,-0.14
2018-12-19T09:22:09.711Z,-0.18
2018-12-19T09:24:46.703Z,-0.06
2018-12-19T09:27:22.817Z,-0.23
2018-12-19T09:29:59.647Z,-0.12
2018-12-19T09:32:35.866Z,0.22
2018-12-19T09:35:14.511Z,0.64
2018-12-19T09:37:50.744Z,0.76
2018-12-19T09:40:27.040Z,1.01
2018-12-19T09:43:03.279Z,0.79
2018-12-19T09:45:39.543Z,0.67
2018-12-19T09:48:15.621Z,0.75
2018-12-19T09:50:51.799Z,0.73
2018-12-19T09:53:28.475Z,0.85
2018-12-19T09:56:04.898Z,0.96
2018-12-19T09:58:41.414Z,1.03
2018-12-19T10:01:17.407Z,1.33
2018-12-19T10:03:53.530Z,1.50
2018-12-19T10:06:29.670Z,1.23
2018-12-19T10:09:14.531Z,1.13
2018-12-19T10:11:46.359Z,1.09
2018-12-19T10:14:23.966Z,1.22
2018-12-19T10:17:00.862Z,1.54
2018-12-19T10:19:37.719Z,1.67
2018-12-19T10:22:17.984Z,1.62
2018-12-19T10:25:00.686Z,1.70
2018-12-19T10:27:36.954Z,1.58
2018-12-19T10:30:14.645Z,1.72
2018-12-19T10:32:58.327Z,1.78
2018-12-19T10:35:34.656Z,2.27
2018-12-19T10:38:12.406Z,2.33
2018-12-19T10:40:48.635Z,1.97
2018-12-19T10:43:24.952Z,2.27
2018-12-19T10:46:01.387Z,2.02
2018-12-19T10:48:37.691Z,1.86
2018-12-19T10:51:13.982Z,1.88
2018-12-19T10:53:50.727Z,1.68
2018-12-19T10:56:26.868Z,1.27
2018-12-19T10:59:03.068Z,1.07
2018-12-19T11:01:39.096Z,0.98
2018-12-19T11:04:15.542Z,0.54
2018-12-19T11:06:51.730Z,0.26
2018-12-19T11:09:28.031Z,0.19
2018-12-19T11:12:04.275Z,0.21
2018-12-19T11:14:40.244Z,0.29
2018-12-19T11:17:16.435Z,0.40
2018-12-19T11:19:52.675Z,0.07
2018-12-19T11:22:28.836Z,-0.22
2018-12-19T11:25:05.790Z,-0.28
2018-12-19T11:27:42.475Z,-0.09
2018-12-19T11:30:18.492Z,0.19
2018-12-19T11:32:56.248Z,-0.01
2018-12-19T11:35:32.534Z,-0.24
2018-12-19T11:38:08.970Z,-0.07
2018-12-19T11:40:45.148Z,0.39
2018-12-19T11:43:21.394Z,0.58
2018-12-19T11:45:57.516Z,0.43
2018-12-19T11:48:33.638Z,0.68
2018-12-19T11:51:09.719Z,0.72
2018-12-19T11:53:45.912Z,0.39
2018-12-19T11:56:22.091Z,0.36
2018-12-19T11:58:58.616Z,0.49
2018-12-19T12:01:41.196Z,0.47
2018-12-19T12:04:13.695Z,0.40
2018-12-19T12:06:50.550Z,0.38
2018-12-19T12:09:26.636Z,0.31
2018-12-19T12:12:03.003Z,0.40
2018-12-19T12:14:39.361Z,0.60
2018-12-19T12:17:15.820Z,0.95
2018-12-19T12:19:54.313Z,1.04
2018-12-19T12:22:32.301Z,0.88
2018-12-19T12:25:09.841Z,0.89
2018-12-19T12:27:48.523Z,0.82
2018-12-19T12:30:25.480Z,0.85
2018-12-19T12:33:01.793Z,1.13
2018-12-19T12:35:39.470Z,1.09
2018-12-19T12:38:15.744Z,1.36
2018-12-19T12:40:51.960Z,1.24
2018-12-19T12:43:23.042Z,0.92
2018-12-19T12:45:54.295Z,0.84
2018-12-19T12:48:25.816Z,0.96
2018-12-19T12:50:56.892Z,1.06
2018-12-19T12:53:28.000Z,1.12
2018-12-19T12:55:59.079Z,1.24
2018-12-19T12:58:30.169Z,1.40
2018-12-19T13:01:01.257Z,1.32
2018-12-19T13:03:32.326Z,0.90
2018-12-19T13:06:03.380Z,0.80
2018-12-19T13:08:34.519Z,0.44
2018-12-19T13:11:06.320Z,0.31
2018-12-19T13:13:37.486Z,0.29
2018-12-19T13:16:08.607Z,0.36
2018-12-19T13:18:39.688Z,1.03
2018-12-19T13:21:10.752Z,1.28
2018-12-19T13:23:42.772Z,1.80
2018-12-19T13:26:14.383Z,2.62
2018-12-19T13:28:45.467Z,2.70
2018-12-19T13:31:18.404Z,4.16
2018-12-19T13:33:49.487Z,4.54
2018-12-19T13:36:47.577Z,4.04
2018-12-19T13:42:24.343Z,2.57
2018-12-19T13:44:58.401Z,1.74
2018-12-19T13:47:30.937Z,1.40
2018-12-19T13:50:02.623Z,1.28
2018-12-19T13:52:33.873Z,1.17
2018-12-19T13:55:06.033Z,1.08
2018-12-19T13:57:37.135Z,1.01
2018-12-19T14:00:10.783Z,0.92
2018-12-19T14:02:41.769Z,0.94
2018-12-19T14:05:13.340Z,0.68
2018-12-19T14:07:44.375Z,0.63
2018-12-19T14:10:15.483Z,0.62
2018-12-19T14:12:47.094Z,0.51
2018-12-19T14:15:18.065Z,0.61
2018-12-19T14:17:49.347Z,0.49
2018-12-19T14:20:20.353Z,0.50
2018-12-19T14:22:51.542Z,0.42
2018-12-19T14:25:22.652Z,0.29
2018-12-19T14:27:54.262Z,0.36
2018-12-19T14:30:25.573Z,0.15
2018-12-19T14:32:56.741Z,-0.03
2018-12-19T14:35:27.839Z,-0.13
2018-12-19T14:37:59.034Z,0.03
2018-12-19T14:40:30.526Z,-0.21
2018-12-19T14:43:01.696Z,-0.77
2018-12-19T14:45:32.751Z,-1.25
2018-12-19T14:48:04.043Z,-1.47
2018-12-19T14:50:35.140Z,-1.56
2018-12-19T14:53:06.220Z,-1.20
2018-12-19T14:55:37.357Z,-1.02
2018-12-19T14:58:08.553Z,-0.86
2018-12-19T15:00:39.658Z,-0.77
2018-12-19T15:03:10.803Z,-0.80
2018-12-19T15:05:41.887Z,-0.95
2018-12-19T15:08:13.052Z,-0.98
2018-12-19T15:10:44.324Z,-0.96
2018-12-19T15:13:16.553Z,-1.01
2018-12-19T15:15:53.001Z,-1.10
2018-12-19T15:18:24.417Z,-1.14
2018-12-19T15:20:55.552Z,-1.17
2018-12-19T15:23:26.709Z,-1.27
2018-12-19T15:25:57.821Z,-1.16
2018-12-19T15:28:29.315Z,-1.20
2018-12-19T15:31:00.418Z,-1.20
2018-12-19T15:33:31.632Z,-1.23
2018-12-19T15:36:03.509Z,-1.25
2018-12-19T15:38:34.502Z,-1.37
2018-12-19T15:41:05.717Z,-1.25
2018-12-19T15:43:36.868Z,-1.29
2018-12-19T15:46:08.002Z,-1.21
2018-12-19T15:48:39.086Z,-1.62
2018-12-19T15:51:10.195Z,-1.49
2018-12-19T15:53:41.373Z,-1.42
2018-12-19T15:56:12.482Z,-1.29
2018-12-19T15:58:43.741Z,-1.25
2018-12-19T16:01:14.766Z,-1.31
2018-12-19T16:03:45.945Z,-1.34
2018-12-19T16:06:17.059Z,-1.37
2018-12-19T16:08:48.233Z,-1.52
2018-12-19T16:11:19.344Z,-1.81
2018-12-19T16:13:51.373Z,-1.83
2018-12-19T16:16:22.573Z,-1.65
2018-12-19T16:18:53.792Z,-1.76
2018-12-19T16:21:24.881Z,-1.82
2018-12-19T16:23:56.049Z,-1.91
2018-12-19T16:26:27.145Z,-2.03
2018-12-19T16:28:58.950Z,-2.41
2018-12-19T16:31:30.086Z,-2.76
2018-12-19T16:34:01.244Z,-2.78
2018-12-19T16:36:32.339Z,-2.51
2018-12-19T16:39:08.740Z,-2.28
2018-12-19T16:41:39.883Z,-2.13
2018-12-19T16:44:11.141Z,-2.07
2018-12-19T16:46:42.149Z,-2.14
2018-12-19T16:49:14.272Z,-2.32
2018-12-19T16:51:45.396Z,-2.24
2018-12-19T16:54:16.558Z,-2.58
2018-12-19T16:56:47.646Z,-2.60
2018-12-19T16:59:18.899Z,-2.74
2018-12-19T17:01:49.922Z,-2.69
2018-12-19T17:04:21.153Z,-2.64
2018-12-19T17:06:52.265Z,-2.61
2018-12-19T17:09:26.160Z,-2.41
2018-12-19T17:11:57.272Z,-2.38
2018-12-19T17:14:28.570Z,-2.39
2018-12-19T17:16:59.974Z,-2.73
2018-12-19T17:19:31.112Z,-2.80
2018-12-19T17:22:04.783Z,-2.98
2018-12-19T17:24:41.014Z,-2.66
2018-12-19T17:27:12.172Z,-2.52
2018-12-19T17:29:43.665Z,-3.02
2018-12-19T17:35:04.237Z,-3.62
2018-12-19T17:37:36.619Z,-3.85
2018-12-19T17:40:09.407Z,-3.87
2018-12-19T17:42:40.529Z,-3.84
2018-12-19T17:45:11.752Z,-3.90
2018-12-19T17:47:42.847Z,-3.42
2018-12-19T17:50:14.020Z,-3.51
2018-12-19T17:52:45.128Z,-2.80
2018-12-19T17:55:16.275Z,-2.78
2018-12-19T17:57:47.404Z,-2.77
2018-12-19T18:00:18.670Z,-2.78
2018-12-19T18:02:49.703Z,-2.70
2018-12-19T18:05:20.912Z,-2.84
2018-12-19T18:07:51.946Z,-3.02
2018-12-19T18:10:23.184Z,-3.12
2018-12-19T18:12:54.316Z,-3.08
2018-12-19T18:15:26.683Z,-2.92
2018-12-19T18:17:58.099Z,-2.87
2018-12-19T18:20:29.362Z,-3.00
2018-12-19T18:23:00.399Z,-2.96
2018-12-19T18:25:32.016Z,-3.08
2018-12-19T18:28:03.042Z,-3.27
2018-12-19T18:30:34.246Z,-3.36
2018-12-19T18:33:05.289Z,-3.33
2018-12-19T18:35:36.454Z,-3.46
2018-12-19T18:38:07.569Z,-3.43
2018-12-19T18:40:38.762Z,-3.46
2018-12-19T18:43:12.928Z,-3.40
2018-12-19T18:45:42.946Z,-3.32
2018-12-19T18:48:13.998Z,-3.35
2018-12-19T18:50:45.328Z,-3.40
2018-12-19T18:53:16.271Z,-3.39
2018-12-19T18:55:47.467Z,-3.35
2018-12-19T18:58:18.847Z,-3.53
2018-12-19T19:00:50.113Z,-3.64
2018-12-19T19:03:21.167Z,-3.51
2018-12-19T19:05:52.467Z,-3.39
2018-12-19T19:08:23.757Z,-3.61
2018-12-19T19:10:54.932Z,-3.86
2018-12-19T19:13:26.050Z,-4.14
2018-12-19T19:15:57.279Z,-4.33
2018-12-19T19:18:28.348Z,-4.40
2018-12-19T19:20:59.753Z,-4.28
2018-12-19T19:23:30.955Z,-4.40
2018-12-19T19:26:02.107Z,-4.47
2018-12-19T19:28:33.247Z,-4.15
2018-12-19T19:31:04.854Z,-4.57
2018-12-19T19:33:36.671Z,-4.61
2018-12-19T19:36:07.641Z,-4.29
2018-12-19T19:38:38.755Z,-4.25
2018-12-19T19:41:14.116Z,-3.85
2018-12-19T19:43:47.570Z,-3.65
2018-12-19T19:46:22.295Z,-3.50
2018-12-19T19:48:55.578Z,-3.38
2018-12-19T19:51:28.737Z,-3.37
2018-12-19T19:54:02.566Z,-3.38
2018-12-19T19:56:33.828Z,-3.39
2018-12-19T19:59:06.694Z,-3.27
2018-12-19T20:01:39.243Z,-3.39
2018-12-19T20:04:10.674Z,-3.34
2018-12-19T20:06:43.087Z,-3.42
2018-12-19T20:09:14.538Z,-3.50
2018-12-19T20:11:47.515Z,-3.63
2018-12-19T20:14:20.176Z,-3.49
2018-12-19T20:16:56.979Z,-2.92
2018-12-19T20:19:36.294Z,-2.45
2018-12-19T20:22:08.301Z,-2.98
2018-12-19T20:24:39.977Z,-3.07
2018-12-19T20:27:12.175Z,-3.55
2018-12-19T20:29:43.158Z,-3.79
2018-12-19T20:32:14.390Z,-3.95
2018-12-19T20:34:45.454Z,-4.11
2018-12-19T20:37:17.533Z,-4.29
2018-12-19T20:39:48.616Z,-3.99
2018-12-19T20:42:19.538Z,-4.19
2018-12-19T20:44:50.603Z,-4.25
2018-12-19T20:47:21.790Z,-4.18
2018-12-19T20:49:52.890Z,-4.17
2018-12-19T20:52:24.066Z,-4.00
2018-12-19T20:54:55.223Z,-4.03
2018-12-19T20:57:26.339Z,-3.91
2018-12-19T21:00:02.707Z,-3.78
2018-12-19T21:02:38.819Z,-4.18
2018-12-19T21:05:15.170Z,-4.42
2018-12-19T21:07:51.279Z,-4.64
2018-12-19T21:10:28.035Z,-4.74
2018-12-19T21:13:03.983Z,-4.84
2018-12-19T21:15:39.964Z,-4.55
2018-12-19T21:18:21.221Z,-4.28
2018-12-19T21:20:57.338Z,-4.09
2018-12-19T21:23:33.473Z,-3.76
2018-12-19T21:29:13.459Z,-3.97
2018-12-19T21:31:50.285Z,-3.96
2018-12-19T21:34:27.747Z,-3.85
2018-12-19T21:37:05.844Z,-4.22
2018-12-19T21:39:42.403Z,-4.58
2018-12-19T21:42:19.177Z,-4.29
2018-12-19T21:44:55.695Z,-4.85
2018-12-19T21:47:31.912Z,-4.81
2018-12-19T21:50:08.818Z,-5.06
2018-12-19T21:52:46.705Z,-5.43
2018-12-19T21:55:23.067Z,-5.72
2018-12-19T21:58:00.182Z,-5.77
2018-12-19T22:00:38.117Z,-5.76
2018-12-19T22:03:14.306Z,-5.67
2018-12-19T22:05:51.186Z,-5.47
2018-12-19T22:08:27.668Z,-5.05
2018-12-19T22:14:07.876Z,-4.53
2018-12-19T22:16:49.500Z,-4.44
2018-12-19T22:19:25.651Z,-4.33
2018-12-19T22:22:01.699Z,-4.32
2018-12-19T22:24:37.774Z,-4.31
2018-12-19T22:27:14.073Z,-4.25
2018-12-19T22:29:50.176Z,-4.12
2018-12-19T22:32:26.490Z,-4.01
2018-12-19T22:35:02.632Z,-4.15
2018-12-19T22:37:39.021Z,-4.21
2018-12-19T22:40:15.369Z,-4.41
2018-12-19T22:42:54.162Z,-4.61
2018-12-19T22:45:30.552Z,-5.15
2018-12-19T22:48:07.276Z,-5.32
2018-12-19T22:50:43.586Z,-5.39
2018-12-19T22:53:19.604Z,-5.41
2018-12-19T22:55:55.986Z,-5.46
2018-12-19T22:58:32.009Z,-5.30
2018-12-19T23:01:13.781Z,-5.13
2018-12-19T23:03:55.157Z,-5.09
2018-12-19T23:06:31.432Z,-4.87
2018-12-19T23:09:08.188Z,-4.58
2018-12-19T23:11:44.387Z,-4.94
2018-12-19T23:14:20.811Z,-5.12
2018-12-19T23:17:00.130Z,-5.25
2018-12-19T23:19:36.474Z,-5.32
2018-12-19T23:22:12.650Z,-5.03
2018-12-19T23:24:55.015Z,-4.75
2018-12-19T23:27:31.751Z,-4.87
2018-12-19T23:30:09.244Z,-4.96
2018-12-19T23:32:45.173Z,-5.15
2018-12-19T23:35:21.784Z,-5.29
2018-12-19T23:37:58.770Z,-5.48
2018-12-19T23:40:34.826Z,-5.60
2018-12-19T23:43:11.035Z,-5.75
2018-12-19T23:45:47.534Z,-5.48
2018-12-19T23:48:23.663Z,-5.23
2018-12-19T23:50:59.739Z,-4.90
2018-12-19T23:53:36.068Z,-5.06
2018-12-19T23:57:36.699Z,-5.67
